Terminal Aerodrome Forecast
Issued by NWS

Home | Current Version | Previous Version | Text Only | Print | Product List | Glossary On
Versions: 1 2 3 4 5 6 7 8 9 10 11 12 13 14 15 16 17 18 19 20 21
000
FTAK31 PANC 280533
TAFADQ
TAF
PADQ 280533Z 2806/2906 VRB03KT P6SM FEW030 SCT050 BKN090
     FM281600 VRB03KT P6SM VCSH BKN060
     FM282200 09005KT P6SM -SHRA BKN060=

USA.gov is the U.S. government's official web portal to all federal, state and local government web resources and services.